sensor_id;sensor_type;location;lat;lon;timestamp;temperature;humidity
20750;DHT22;10535;50.664;4.564;2023-05-23T00:01:55;13.20;99.90
20750;DHT22;10535;50.664;4.564;2023-05-23T00:07:32;13.40;99.90
20750;DHT22;10535;50.664;4.564;2023-05-23T00:11:01;13.40;99.90
20750;DHT22;10535;50.664;4.564;2023-05-23T00:14:20;13.40;99.90
20750;DHT22;10535;50.664;4.564;2023-05-23T00:17:31;13.50;99.90
20750;DHT22;10535;50.664;4.564;2023-05-23T00:20:20;13.30;99.90
20750;DHT22;10535;50.664;4.564;2023-05-23T00:23:19;13.30;99.90
20750;DHT22;10535;50.664;4.564;2023-05-23T00:26:32;13.40;99.90
20750;DHT22;10535;50.664;4.564;2023-05-23T00:29:40;13.40;99.90
20750;DHT22;10535;50.664;4.564;2023-05-23T00:32:11;13.30;99.90
20750;DHT22;10535;50.664;4.564;2023-05-23T00:35:09;13.30;99.90
20750;DHT22;10535;50.664;4.564;2023-05-23T00:38:19;13.30;99.90
20750;DHT22;10535;50.664;4.564;2023-05-23T00:41:23;13.50;99.90
20750;DHT22;10535;50.664;4.564;2023-05-23T00:44:04;13.70;99.90
20750;DHT22;10535;50.664;4.564;2023-05-23T00:46:54;13.90;99.90
20750;DHT22;10535;50.664;4.564;2023-05-23T00:50:00;14.00;99.90
20750;DHT22;10535;50.664;4.564;2023-05-23T00:56:02;13.80;99.90
20750;DHT22;10535;50.664;4.564;2023-05-23T00:58:48;13.90;99.90
20750;DHT22;10535;50.664;4.564;2023-05-23T01:02:00;14.10;99.90
20750;DHT22;10535;50.664;4.564;2023-05-23T01:04:59;14.00;99.90
20750;DHT22;10535;50.664;4.564;2023-05-23T01:08:33;14.00;99.90
20750;DHT22;10535;50.664;4.564;2023-05-23T01:16:01;14.10;99.90
20750;DHT22;10535;50.664;4.564;2023-05-23T01:18:57;14.20;99.90
20750;DHT22;10535;50.664;4.564;2023-05-23T01:22:26;14.20;99.90
20750;DHT22;10535;50.664;4.564;2023-05-23T01:32:29;14.30;99.90
20750;DHT22;10535;50.664;4.564;2023-05-23T01:35:44;14.10;99.90
20750;DHT22;10535;50.664;4.564;2023-05-23T01:38:29;14.20;99.90
20750;DHT22;10535;50.664;4.564;2023-05-23T01:41:39;14.40;99.90
20750;DHT22;10535;50.664;4.564;2023-05-23T01:44:23;14.40;99.90
20750;DHT22;10535;50.664;4.564;2023-05-23T01:47:59;14.30;99.90
20750;DHT22;10535;50.664;4.564;2023-05-23T01:51:29;14.20;99.90
20750;DHT22;10535;50.664;4.564;2023-05-23T01:54:40;14.30;99.90
20750;DHT22;10535;50.664;4.564;2023-05-23T01:57:49;14.50;99.90
20750;DHT22;10535;50.664;4.564;2023-05-23T02:01:15;14.70;99.90
20750;DHT22;10535;50.664;4.564;2023-05-23T02:06:31;14.50;99.90
20750;DHT22;10535;50.664;4.564;2023-05-23T02:09:29;14.40;99.90
20750;DHT22;10535;50.664;4.564;2023-05-23T02:12:43;14.60;99.90
20750;DHT22;10535;50.664;4.564;2023-05-23T02:15:58;14.50;99.90
20750;DHT22;10535;50.664;4.564;2023-05-23T02:18:43;14.60;99.90
20750;DHT22;10535;50.664;4.564;2023-05-23T02:25:27;14.70;99.90
20750;DHT22;10535;50.664;4.564;2023-05-23T02:28:16;14.80;99.90
20750;DHT22;10535;50.664;4.564;2023-05-23T02:31:12;14.70;99.90
20750;DHT22;10535;50.664;4.564;2023-05-23T02:33:59;14.60;99.90
20750;DHT22;10535;50.664;4.564;2023-05-23T02:37:00;14.80;99.90
20750;DHT22;10535;50.664;4.564;2023-05-23T02:40:12;14.60;99.90
20750;DHT22;10535;50.664;4.564;2023-05-23T02:43:20;14.50;99.90
20750;DHT22;10535;50.664;4.564;2023-05-23T02:49:35;14.80;99.90
20750;DHT22;10535;50.664;4.564;2023-05-23T02:52:07;14.50;99.90
20750;DHT22;10535;50.664;4.564;2023-05-23T02:54:58;14.50;99.90
20750;DHT22;10535;50.664;4.564;2023-05-23T02:57:59;14.40;99.90
20750;DHT22;10535;50.664;4.564;2023-05-23T03:01:25;14.30;99.90
20750;DHT22;10535;50.664;4.564;2023-05-23T03:04:13;14.60;99.90
20750;DHT22;10535;50.664;4.564;2023-05-23T03:06:46;14.60;99.90
20750;DHT22;10535;50.664;4.564;2023-05-23T03:10:25;14.80;99.90
20750;DHT22;10535;50.664;4.564;2023-05-23T03:13:29;14.80;99.90
20750;DHT22;10535;50.664;4.564;2023-05-23T03:16:14;14.70;99.90
20750;DHT22;10535;50.664;4.564;2023-05-23T03:18:46;14.70;99.90
20750;DHT22;10535;50.664;4.564;2023-05-23T03:21:54;14.80;99.90
20750;DHT22;10535;50.664;4.564;2023-05-23T03:25:09;14.80;99.90
20750;DHT22;10535;50.664;4.564;2023-05-23T03:28:30;14.50;99.90
20750;DHT22;10535;50.664;4.564;2023-05-23T03:32:07;14.40;99.90
20750;DHT22;10535;50.664;4.564;2023-05-23T03:38:36;14.30;99.90
20750;DHT22;10535;50.664;4.564;2023-05-23T03:41:28;14.30;99.90
20750;DHT22;10535;50.664;4.564;2023-05-23T03:44:14;14.40;99.90
20750;DHT22;10535;50.664;4.564;2023-05-23T03:47:33;14.20;99.90
20750;DHT22;10535;50.664;4.564;2023-05-23T03:50:33;14.30;99.90
20750;DHT22;10535;50.664;4.564;2023-05-23T03:56:27;14.00;99.90
20750;DHT22;10535;50.664;4.564;2023-05-23T03:59:02;14.20;99.90
20750;DHT22;10535;50.664;4.564;2023-05-23T04:02:00;14.10;99.90
20750;DHT22;10535;50.664;4.564;2023-05-23T04:04:33;14.20;99.90
20750;DHT22;10535;50.664;4.564;2023-05-23T04:07:37;14.20;99.90
20750;DHT22;10535;50.664;4.564;2023-05-23T04:10:47;14.20;99.90
20750;DHT22;10535;50.664;4.564;2023-05-23T04:14:15;14.10;99.90
20750;DHT22;10535;50.664;4.564;2023-05-23T04:17:13;14.00;99.90
20750;DHT22;10535;50.664;4.564;2023-05-23T04:20:21;14.00;99.90
20750;DHT22;10535;50.664;4.564;2023-05-23T04:23:15;13.80;99.90
20750;DHT22;10535;50.664;4.564;2023-05-23T04:26:06;13.80;99.90
20750;DHT22;10535;50.664;4.564;2023-05-23T04:28:35;14.00;99.90
20750;DHT22;10535;50.664;4.564;2023-05-23T04:31:45;14.00;99.90
20750;DHT22;10535;50.664;4.564;2023-05-23T04:35:11;13.90;99.90
20750;DHT22;10535;50.664;4.564;2023-05-23T04:37:59;13.80;99.90
20750;DHT22;10535;50.664;4.564;2023-05-23T04:44:08;13.70;99.90
20750;DHT22;10535;50.664;4.564;2023-05-23T04:47:10;13.50;99.90
20750;DHT22;10535;50.664;4.564;2023-05-23T04:50:10;13.40;99.90
20750;DHT22;10535;50.664;4.564;2023-05-23T04:53:50;13.20;99.90
20750;DHT22;10535;50.664;4.564;2023-05-23T04:57:21;13.10;99.90
20750;DHT22;10535;50.664;4.564;2023-05-23T05:00:25;13.10;99.90
20750;DHT22;10535;50.664;4.564;2023-05-23T05:03:23;13.00;99.90
20750;DHT22;10535;50.664;4.564;2023-05-23T05:06:58;13.20;99.90
20750;DHT22;10535;50.664;4.564;2023-05-23T05:10:33;13.20;99.90
20750;DHT22;10535;50.664;4.564;2023-05-23T05:16:18;13.40;99.90
20750;DHT22;10535;50.664;4.564;2023-05-23T05:19:33;13.40;99.90
20750;DHT22;10535;50.664;4.564;2023-05-23T05:23:14;13.40;99.90
20750;DHT22;10535;50.664;4.564;2023-05-23T05:26:00;13.40;99.90
20750;DHT22;10535;50.664;4.564;2023-05-23T05:28:55;13.50;99.90
20750;DHT22;10535;50.664;4.564;2023-05-23T05:32:21;13.60;99.90
20750;DHT22;10535;50.664;4.564;2023-05-23T05:35:21;13.70;99.90
20750;DHT22;10535;50.664;4.564;2023-05-23T05:38:55;13.80;99.90
20750;DHT22;10535;50.664;4.564;2023-05-23T05:42:19;13.90;99.90
20750;DHT22;10535;50.664;4.564;2023-05-23T05:45:35;13.80;99.90
20750;DHT22;10535;50.664;4.564;2023-05-23T05:48:59;13.80;99.90
20750;DHT22;10535;50.664;4.564;2023-05-23T05:52:08;14.00;99.90
20750;DHT22;10535;50.664;4.564;2023-05-23T05:58:48;14.00;99.90
20750;DHT22;10535;50.664;4.564;2023-05-23T06:01:18;14.10;99.90
20750;DHT22;10535;50.664;4.564;2023-05-23T06:04:21;14.10;99.90
20750;DHT22;10535;50.664;4.564;2023-05-23T06:07:16;14.20;99.90
20750;DHT22;10535;50.664;4.564;2023-05-23T06:09:51;14.10;99.90
20750;DHT22;10535;50.664;4.564;2023-05-23T06:13:15;14.00;99.90
20750;DHT22;10535;50.664;4.564;2023-05-23T06:16:02;14.10;99.90
20750;DHT22;10535;50.664;4.564;2023-05-23T06:18:53;14.10;99.90
20750;DHT22;10535;50.664;4.564;2023-05-23T06:21:29;13.80;99.90
20750;DHT22;10535;50.664;4.564;2023-05-23T06:24:21;13.70;99.90
20750;DHT22;10535;50.664;4.564;2023-05-23T06:27:07;13.70;99.90
20750;DHT22;10535;50.664;4.564;2023-05-23T06:29:53;13.70;99.90
20750;DHT22;10535;50.664;4.564;2023-05-23T06:33:07;13.90;99.90
20750;DHT22;10535;50.664;4.564;2023-05-23T06:36:17;14.00;99.90
20750;DHT22;10535;50.664;4.564;2023-05-23T06:39:28;14.00;99.90
20750;DHT22;10535;50.664;4.564;2023-05-23T06:42:18;14.00;99.90
20750;DHT22;10535;50.664;4.564;2023-05-23T06:44:44;14.20;99.90
20750;DHT22;10535;50.664;4.564;2023-05-23T06:47:10;14.30;99.90
20750;DHT22;10535;50.664;4.564;2023-05-23T06:49:35;14.30;99.90
20750;DHT22;10535;50.664;4.564;2023-05-23T06:52:01;14.30;99.90
20750;DHT22;10535;50.664;4.564;2023-05-23T06:54:26;14.20;99.90
20750;DHT22;10535;50.664;4.564;2023-05-23T06:56:53;14.20;99.90
20750;DHT22;10535;50.664;4.564;2023-05-23T06:59:19;14.20;99.90
20750;DHT22;10535;50.664;4.564;2023-05-23T07:01:45;14.30;99.90
20750;DHT22;10535;50.664;4.564;2023-05-23T07:04:10;14.50;99.90
20750;DHT22;10535;50.664;4.564;2023-05-23T07:06:36;14.50;99.90
20750;DHT22;10535;50.664;4.564;2023-05-23T07:09:04;14.60;99.90
20750;DHT22;10535;50.664;4.564;2023-05-23T07:11:29;14.60;99.90
20750;DHT22;10535;50.664;4.564;2023-05-23T07:13:55;14.60;99.90
20750;DHT22;10535;50.664;4.564;2023-05-23T07:16:21;14.50;99.90
20750;DHT22;10535;50.664;4.564;2023-05-23T07:18:47;14.40;99.90
20750;DHT22;10535;50.664;4.564;2023-05-23T07:21:13;14.40;99.90
20750;DHT22;10535;50.664;4.564;2023-05-23T07:23:39;14.50;99.90
20750;DHT22;10535;50.664;4.564;2023-05-23T07:26:08;14.40;99.90
20750;DHT22;10535;50.664;4.564;2023-05-23T07:28:35;14.40;99.90
20750;DHT22;10535;50.664;4.564;2023-05-23T07:31:27;14.20;99.90
20750;DHT22;10535;50.664;4.564;2023-05-23T07:33:54;14.20;99.90
20750;DHT22;10535;50.664;4.564;2023-05-23T07:36:57;14.40;99.90
20750;DHT22;10535;50.664;4.564;2023-05-23T07:39:45;14.40;99.90
20750;DHT22;10535;50.664;4.564;2023-05-23T07:42:14;14.70;99.90
20750;DHT22;10535;50.664;4.564;2023-05-23T07:44:48;14.80;99.90
20750;DHT22;10535;50.664;4.564;2023-05-23T07:47:14;14.90;99.90
20750;DHT22;10535;50.664;4.564;2023-05-23T07:49:40;15.20;99.90
20750;DHT22;10535;50.664;4.564;2023-05-23T07:52:36;15.20;99.90
20750;DHT22;10535;50.664;4.564;2023-05-23T07:55:16;15.00;99.90
20750;DHT22;10535;50.664;4.564;2023-05-23T07:57:42;15.10;99.90
20750;DHT22;10535;50.664;4.564;2023-05-23T08:00:08;15.10;99.90
20750;DHT22;10535;50.664;4.564;2023-05-23T08:02:34;15.10;99.90
20750;DHT22;10535;50.664;4.564;2023-05-23T08:05:16;15.30;99.90
20750;DHT22;10535;50.664;4.564;2023-05-23T08:08:00;15.30;99.90
20750;DHT22;10535;50.664;4.564;2023-05-23T08:10:26;15.40;99.90
20750;DHT22;10535;50.664;4.564;2023-05-23T08:12:54;15.50;99.90
20750;DHT22;10535;50.664;4.564;2023-05-23T08:15:19;15.20;99.90
20750;DHT22;10535;50.664;4.564;2023-05-23T08:17:48;15.10;99.90
20750;DHT22;10535;50.664;4.564;2023-05-23T08:20:13;15.10;99.90
20750;DHT22;10535;50.664;4.564;2023-05-23T08:22:39;15.20;99.90
20750;DHT22;10535;50.664;4.564;2023-05-23T08:25:05;15.30;99.90
20750;DHT22;10535;50.664;4.564;2023-05-23T08:27:31;15.50;99.90
20750;DHT22;10535;50.664;4.564;2023-05-23T08:29:58;15.50;99.90
20750;DHT22;10535;50.664;4.564;2023-05-23T08:32:24;15.60;99.90
20750;DHT22;10535;50.664;4.564;2023-05-23T08:34:49;15.60;99.90
20750;DHT22;10535;50.664;4.564;2023-05-23T08:37:16;15.60;99.90
20750;DHT22;10535;50.664;4.564;2023-05-23T08:39:45;15.70;99.90
20750;DHT22;10535;50.664;4.564;2023-05-23T08:42:20;16.10;99.90
20750;DHT22;10535;50.664;4.564;2023-05-23T08:44:46;16.00;99.90
20750;DHT22;10535;50.664;4.564;2023-05-23T08:47:14;16.00;99.90
20750;DHT22;10535;50.664;4.564;2023-05-23T08:49:42;16.10;99.90
20750;DHT22;10535;50.664;4.564;2023-05-23T08:52:11;16.00;99.90
20750;DHT22;10535;50.664;4.564;2023-05-23T08:54:38;16.30;99.90
20750;DHT22;10535;50.664;4.564;2023-05-23T08:57:05;16.30;99.90
20750;DHT22;10535;50.664;4.564;2023-05-23T08:59:32;16.30;99.90
20750;DHT22;10535;50.664;4.564;2023-05-23T09:01:59;16.10;99.90
20750;DHT22;10535;50.664;4.564;2023-05-23T09:04:26;16.40;99.90
20750;DHT22;10535;50.664;4.564;2023-05-23T09:06:54;16.60;99.90
20750;DHT22;10535;50.664;4.564;2023-05-23T09:09:21;16.80;99.90
20750;DHT22;10535;50.664;4.564;2023-05-23T09:11:47;16.50;99.90
20750;DHT22;10535;50.664;4.564;2023-05-23T09:14:12;16.30;99.90
20750;DHT22;10535;50.664;4.564;2023-05-23T09:16:39;16.20;99.90
20750;DHT22;10535;50.664;4.564;2023-05-23T09:19:14;16.10;99.90
20750;DHT22;10535;50.664;4.564;2023-05-23T09:21:43;16.30;99.90
20750;DHT22;10535;50.664;4.564;2023-05-23T09:24:10;16.20;99.90
20750;DHT22;10535;50.664;4.564;2023-05-23T09:26:36;16.20;99.90
20750;DHT22;10535;50.664;4.564;2023-05-23T09:29:04;16.40;99.90
20750;DHT22;10535;50.664;4.564;2023-05-23T09:31:31;16.50;99.90
20750;DHT22;10535;50.664;4.564;2023-05-23T09:33:57;16.70;99.90
20750;DHT22;10535;50.664;4.564;2023-05-23T09:36:29;17.00;99.90
20750;DHT22;10535;50.664;4.564;2023-05-23T09:39:01;17.30;99.90
20750;DHT22;10535;50.664;4.564;2023-05-23T09:41:31;16.90;99.90
20750;DHT22;10535;50.664;4.564;2023-05-23T09:43:57;17.50;99.90
20750;DHT22;10535;50.664;4.564;2023-05-23T09:46:27;17.70;99.90
20750;DHT22;10535;50.664;4.564;2023-05-23T09:48:54;17.80;99.90
20750;DHT22;10535;50.664;4.564;2023-05-23T09:51:21;17.30;99.90
20750;DHT22;10535;50.664;4.564;2023-05-23T09:53:48;16.70;99.90
20750;DHT22;10535;50.664;4.564;2023-05-23T09:56:15;16.80;99.90
20750;DHT22;10535;50.664;4.564;2023-05-23T09:58:45;16.90;99.90
20750;DHT22;10535;50.664;4.564;2023-05-23T10:01:11;16.80;99.90
20750;DHT22;10535;50.664;4.564;2023-05-23T10:03:51;16.80;99.90
20750;DHT22;10535;50.664;4.564;2023-05-23T10:06:36;16.90;99.90
20750;DHT22;10535;50.664;4.564;2023-05-23T10:09:05;17.00;99.90
20750;DHT22;10535;50.664;4.564;2023-05-23T10:14:02;16.60;99.90
20750;DHT22;10535;50.664;4.564;2023-05-23T10:19:02;16.70;99.90
20750;DHT22;10535;50.664;4.564;2023-05-23T10:21:39;16.80;99.90
20750;DHT22;10535;50.664;4.564;2023-05-23T10:24:12;16.90;99.90
20750;DHT22;10535;50.664;4.564;2023-05-23T10:26:39;16.40;99.90
20750;DHT22;10535;50.664;4.564;2023-05-23T10:29:06;16.10;99.90
20750;DHT22;10535;50.664;4.564;2023-05-23T10:31:32;15.90;99.90
20750;DHT22;10535;50.664;4.564;2023-05-23T10:34:13;16.30;99.90
20750;DHT22;10535;50.664;4.564;2023-05-23T10:37:02;16.60;99.90
20750;DHT22;10535;50.664;4.564;2023-05-23T10:39:48;16.70;99.90
20750;DHT22;10535;50.664;4.564;2023-05-23T10:45:17;17.00;99.90
20750;DHT22;10535;50.664;4.564;2023-05-23T10:47:43;17.00;99.90
20750;DHT22;10535;50.664;4.564;2023-05-23T10:50:30;17.30;99.90
20750;DHT22;10535;50.664;4.564;2023-05-23T10:53:02;17.00;99.90
20750;DHT22;10535;50.664;4.564;2023-05-23T10:55:35;17.00;99.90
20750;DHT22;10535;50.664;4.564;2023-05-23T10:58:20;16.90;99.90
20750;DHT22;10535;50.664;4.564;2023-05-23T11:01:00;16.90;99.90
20750;DHT22;10535;50.664;4.564;2023-05-23T11:03:37;16.50;99.90
20750;DHT22;10535;50.664;4.564;2023-05-23T11:06:38;16.10;99.90
20750;DHT22;10535;50.664;4.564;2023-05-23T11:09:16;15.60;99.90
20750;DHT22;10535;50.664;4.564;2023-05-23T11:14:19;16.50;99.90
20750;DHT22;10535;50.664;4.564;2023-05-23T11:16:45;16.70;99.90
20750;DHT22;10535;50.664;4.564;2023-05-23T11:19:22;16.40;99.90
20750;DHT22;10535;50.664;4.564;2023-05-23T11:22:01;16.50;99.90
20750;DHT22;10535;50.664;4.564;2023-05-23T11:24:53;16.80;99.90
20750;DHT22;10535;50.664;4.564;2023-05-23T11:30:15;16.60;99.90
20750;DHT22;10535;50.664;4.564;2023-05-23T11:32:53;17.00;99.90
20750;DHT22;10535;50.664;4.564;2023-05-23T11:35:21;17.10;99.90
20750;DHT22;10535;50.664;4.564;2023-05-23T11:38:31;17.40;99.90
20750;DHT22;10535;50.664;4.564;2023-05-23T11:41:03;17.70;99.90
20750;DHT22;10535;50.664;4.564;2023-05-23T11:46:21;17.10;99.90
20750;DHT22;10535;50.664;4.564;2023-05-23T11:49:12;17.80;99.90
20750;DHT22;10535;50.664;4.564;2023-05-23T11:51:40;18.30;99.90
20750;DHT22;10535;50.664;4.564;2023-05-23T11:54:38;18.30;99.90
20750;DHT22;10535;50.664;4.564;2023-05-23T11:57:04;18.20;99.90
20750;DHT22;10535;50.664;4.564;2023-05-23T11:59:30;18.20;99.90
20750;DHT22;10535;50.664;4.564;2023-05-23T12:01:58;17.90;99.90
20750;DHT22;10535;50.664;4.564;2023-05-23T12:04:45;17.50;99.90
20750;DHT22;10535;50.664;4.564;2023-05-23T12:07:54;17.40;99.90
20750;DHT22;10535;50.664;4.564;2023-05-23T12:10:31;17.70;99.90
20750;DHT22;10535;50.664;4.564;2023-05-23T12:13:04;17.60;99.90
20750;DHT22;10535;50.664;4.564;2023-05-23T12:16:13;17.20;99.90
20750;DHT22;10535;50.664;4.564;2023-05-23T12:19:00;17.50;99.90
20750;DHT22;10535;50.664;4.564;2023-05-23T12:21:46;17.80;99.90
20750;DHT22;10535;50.664;4.564;2023-05-23T12:24:19;17.30;99.90
20750;DHT22;10535;50.664;4.564;2023-05-23T12:26:51;17.80;99.90
20750;DHT22;10535;50.664;4.564;2023-05-23T12:29:30;17.90;99.90
20750;DHT22;10535;50.664;4.564;2023-05-23T12:32:23;18.00;99.90
20750;DHT22;10535;50.664;4.564;2023-05-23T12:35:11;18.50;99.90
20750;DHT22;10535;50.664;4.564;2023-05-23T12:37:44;18.90;99.90
20750;DHT22;10535;50.664;4.564;2023-05-23T12:40:20;18.80;99.90
20750;DHT22;10535;50.664;4.564;2023-05-23T12:45:33;18.40;99.90
20750;DHT22;10535;50.664;4.564;2023-05-23T12:47:59;18.40;99.90
20750;DHT22;10535;50.664;4.564;2023-05-23T12:50:25;18.00;99.90
20750;DHT22;10535;50.664;4.564;2023-05-23T12:52:51;18.20;99.90
20750;DHT22;10535;50.664;4.564;2023-05-23T12:55:17;18.00;99.90
20750;DHT22;10535;50.664;4.564;2023-05-23T12:57:46;18.00;99.90
20750;DHT22;10535;50.664;4.564;2023-05-23T13:00:15;18.00;99.90
20750;DHT22;10535;50.664;4.564;2023-05-23T13:03:06;17.80;99.90
20750;DHT22;10535;50.664;4.564;2023-05-23T13:06:16;18.00;99.90
20750;DHT22;10535;50.664;4.564;2023-05-23T13:09:15;17.90;99.90
20750;DHT22;10535;50.664;4.564;2023-05-23T13:12:13;18.10;99.90
20750;DHT22;10535;50.664;4.564;2023-05-23T13:14:43;18.00;99.90
20750;DHT22;10535;50.664;4.564;2023-05-23T13:17:29;18.40;99.90
20750;DHT22;10535;50.664;4.564;2023-05-23T13:20:02;18.50;99.90
20750;DHT22;10535;50.664;4.564;2023-05-23T13:22:29;18.60;99.90
20750;DHT22;10535;50.664;4.564;2023-05-23T13:24:56;18.20;99.90
20750;DHT22;10535;50.664;4.564;2023-05-23T13:27:21;18.20;99.90
20750;DHT22;10535;50.664;4.564;2023-05-23T13:29:50;18.10;99.90
20750;DHT22;10535;50.664;4.564;2023-05-23T13:32:17;17.90;99.90
20750;DHT22;10535;50.664;4.564;2023-05-23T13:34:50;18.20;99.90
20750;DHT22;10535;50.664;4.564;2023-05-23T13:37:46;18.10;99.90
20750;DHT22;10535;50.664;4.564;2023-05-23T13:40:17;18.20;99.90
20750;DHT22;10535;50.664;4.564;2023-05-23T13:42:48;17.90;99.90
20750;DHT22;10535;50.664;4.564;2023-05-23T13:45:15;18.00;99.90
20750;DHT22;10535;50.664;4.564;2023-05-23T13:47:42;18.00;99.90
20750;DHT22;10535;50.664;4.564;2023-05-23T13:50:08;18.00;99.90
20750;DHT22;10535;50.664;4.564;2023-05-23T13:52:34;18.30;99.90
20750;DHT22;10535;50.664;4.564;2023-05-23T13:55:04;18.30;99.90
20750;DHT22;10535;50.664;4.564;2023-05-23T13:57:30;18.30;99.90
20750;DHT22;10535;50.664;4.564;2023-05-23T13:59:56;18.40;99.90
20750;DHT22;10535;50.664;4.564;2023-05-23T14:02:42;18.80;99.90
20750;DHT22;10535;50.664;4.564;2023-05-23T14:05:26;18.60;99.90
20750;DHT22;10535;50.664;4.564;2023-05-23T14:08:00;18.30;99.90
20750;DHT22;10535;50.664;4.564;2023-05-23T14:11:21;18.00;99.90
20750;DHT22;10535;50.664;4.564;2023-05-23T14:16:23;17.80;99.90
20750;DHT22;10535;50.664;4.564;2023-05-23T14:19:40;17.90;99.90
20750;DHT22;10535;50.664;4.564;2023-05-23T14:22:30;18.00;99.90
20750;DHT22;10535;50.664;4.564;2023-05-23T14:25:36;18.30;99.90
20750;DHT22;10535;50.664;4.564;2023-05-23T14:28:08;18.70;99.90
20750;DHT22;10535;50.664;4.564;2023-05-23T14:31:21;18.70;99.90
20750;DHT22;10535;50.664;4.564;2023-05-23T14:34:38;18.50;99.90
20750;DHT22;10535;50.664;4.564;2023-05-23T14:38:07;18.60;99.90
20750;DHT22;10535;50.664;4.564;2023-05-23T14:40:33;19.00;99.90
20750;DHT22;10535;50.664;4.564;2023-05-23T14:43:55;19.00;99.90
20750;DHT22;10535;50.664;4.564;2023-05-23T14:46:46;19.00;99.90
20750;DHT22;10535;50.664;4.564;2023-05-23T14:50:10;18.90;99.90
20750;DHT22;10535;50.664;4.564;2023-05-23T14:53:17;18.90;99.90
20750;DHT22;10535;50.664;4.564;2023-05-23T14:55:49;18.40;99.90
20750;DHT22;10535;50.664;4.564;2023-05-23T14:58:30;18.10;99.90
20750;DHT22;10535;50.664;4.564;2023-05-23T15:01:24;18.10;99.90
20750;DHT22;10535;50.664;4.564;2023-05-23T15:04:21;18.50;99.90
20750;DHT22;10535;50.664;4.564;2023-05-23T15:07:25;18.60;99.90
20750;DHT22;10535;50.664;4.564;2023-05-23T15:13:17;18.80;99.90
20750;DHT22;10535;50.664;4.564;2023-05-23T15:15:56;18.60;99.90
20750;DHT22;10535;50.664;4.564;2023-05-23T15:18:34;18.50;99.90
20750;DHT22;10535;50.664;4.564;2023-05-23T15:21:23;18.40;99.90
20750;DHT22;10535;50.664;4.564;2023-05-23T15:26:47;18.90;99.90
20750;DHT22;10535;50.664;4.564;2023-05-23T15:29:45;19.00;99.90
20750;DHT22;10535;50.664;4.564;2023-05-23T15:33:31;19.00;99.90
20750;DHT22;10535;50.664;4.564;2023-05-23T15:39:49;18.30;99.90
20750;DHT22;10535;50.664;4.564;2023-05-23T15:43:01;18.40;99.90
20750;DHT22;10535;50.664;4.564;2023-05-23T15:46:22;18.70;99.90
20750;DHT22;10535;50.664;4.564;2023-05-23T15:49:17;19.40;99.90
20750;DHT22;10535;50.664;4.564;2023-05-23T15:52:06;19.60;99.90
20750;DHT22;10535;50.664;4.564;2023-05-23T15:55:17;19.00;99.90
20750;DHT22;10535;50.664;4.564;2023-05-23T15:57:43;18.70;99.90
20750;DHT22;10535;50.664;4.564;2023-05-23T16:00:10;18.60;99.90
20750;DHT22;10535;50.664;4.564;2023-05-23T16:02:36;18.40;99.90
20750;DHT22;10535;50.664;4.564;2023-05-23T16:05:05;18.10;99.90
20750;DHT22;10535;50.664;4.564;2023-05-23T16:07:34;18.20;99.90
20750;DHT22;10535;50.664;4.564;2023-05-23T16:10:08;18.20;99.90
20750;DHT22;10535;50.664;4.564;2023-05-23T16:12:41;18.30;99.90
20750;DHT22;10535;50.664;4.564;2023-05-23T16:15:10;18.10;99.90
20750;DHT22;10535;50.664;4.564;2023-05-23T16:17:36;18.30;99.90
20750;DHT22;10535;50.664;4.564;2023-05-23T16:20:02;18.50;99.90
20750;DHT22;10535;50.664;4.564;2023-05-23T16:22:47;18.20;99.90
20750;DHT22;10535;50.664;4.564;2023-05-23T16:25:18;18.10;99.90
20750;DHT22;10535;50.664;4.564;2023-05-23T16:27:44;18.10;99.90
20750;DHT22;10535;50.664;4.564;2023-05-23T16:30:10;18.10;99.90
20750;DHT22;10535;50.664;4.564;2023-05-23T16:32:36;18.10;99.90
20750;DHT22;10535;50.664;4.564;2023-05-23T16:35:02;18.10;99.90
20750;DHT22;10535;50.664;4.564;2023-05-23T16:37:27;17.80;99.90
20750;DHT22;10535;50.664;4.564;2023-05-23T16:39:53;17.80;99.90
20750;DHT22;10535;50.664;4.564;2023-05-23T16:42:19;17.70;99.90
20750;DHT22;10535;50.664;4.564;2023-05-23T16:44:46;17.60;99.90
20750;DHT22;10535;50.664;4.564;2023-05-23T16:47:13;18.00;99.90
20750;DHT22;10535;50.664;4.564;2023-05-23T16:49:39;17.70;99.90
20750;DHT22;10535;50.664;4.564;2023-05-23T16:52:04;17.90;99.90
20750;DHT22;10535;50.664;4.564;2023-05-23T16:54:30;18.20;99.90
20750;DHT22;10535;50.664;4.564;2023-05-23T16:56:56;18.40;99.90
20750;DHT22;10535;50.664;4.564;2023-05-23T16:59:26;18.30;99.90
20750;DHT22;10535;50.664;4.564;2023-05-23T17:01:52;18.00;99.90
20750;DHT22;10535;50.664;4.564;2023-05-23T17:04:17;18.10;99.90
20750;DHT22;10535;50.664;4.564;2023-05-23T17:06:43;17.90;99.90
20750;DHT22;10535;50.664;4.564;2023-05-23T17:09:09;17.80;99.90
20750;DHT22;10535;50.664;4.564;2023-05-23T17:11:37;17.60;99.90
20750;DHT22;10535;50.664;4.564;2023-05-23T17:14:12;17.50;99.90
20750;DHT22;10535;50.664;4.564;2023-05-23T17:17:06;17.20;99.90
20750;DHT22;10535;50.664;4.564;2023-05-23T17:19:53;17.30;99.90
20750;DHT22;10535;50.664;4.564;2023-05-23T17:22:24;17.70;99.90
20750;DHT22;10535;50.664;4.564;2023-05-23T17:24:50;17.70;99.90
20750;DHT22;10535;50.664;4.564;2023-05-23T17:27:26;17.90;99.90
20750;DHT22;10535;50.664;4.564;2023-05-23T17:29:59;18.00;99.90
20750;DHT22;10535;50.664;4.564;2023-05-23T17:32:46;18.30;99.90
20750;DHT22;10535;50.664;4.564;2023-05-23T17:35:15;18.20;99.90
20750;DHT22;10535;50.664;4.564;2023-05-23T17:37:47;18.50;99.90
20750;DHT22;10535;50.664;4.564;2023-05-23T17:40:54;18.60;99.90
20750;DHT22;10535;50.664;4.564;2023-05-23T17:43:21;18.40;99.90
20750;DHT22;10535;50.664;4.564;2023-05-23T17:46:08;18.60;99.90
20750;DHT22;10535;50.664;4.564;2023-05-23T17:48:34;18.60;99.90
20750;DHT22;10535;50.664;4.564;2023-05-23T17:51:04;18.50;99.90
20750;DHT22;10535;50.664;4.564;2023-05-23T17:53:30;18.30;99.90
20750;DHT22;10535;50.664;4.564;2023-05-23T17:55:56;18.50;99.90
20750;DHT22;10535;50.664;4.564;2023-05-23T17:58:24;18.60;99.90
20750;DHT22;10535;50.664;4.564;2023-05-23T18:00:50;18.60;99.90
20750;DHT22;10535;50.664;4.564;2023-05-23T18:03:16;18.60;99.90
20750;DHT22;10535;50.664;4.564;2023-05-23T18:05:41;18.20;99.90
20750;DHT22;10535;50.664;4.564;2023-05-23T18:08:07;18.00;99.90
20750;DHT22;10535;50.664;4.564;2023-05-23T18:10:33;18.00;99.90
20750;DHT22;10535;50.664;4.564;2023-05-23T18:13:11;17.80;99.90
20750;DHT22;10535;50.664;4.564;2023-05-23T18:15:39;17.50;99.90
20750;DHT22;10535;50.664;4.564;2023-05-23T18:18:05;17.70;99.90
20750;DHT22;10535;50.664;4.564;2023-05-23T18:20:31;17.40;99.90
20750;DHT22;10535;50.664;4.564;2023-05-23T18:22:57;17.30;99.90
20750;DHT22;10535;50.664;4.564;2023-05-23T18:25:23;17.00;99.90
20750;DHT22;10535;50.664;4.564;2023-05-23T18:27:57;17.30;99.90
20750;DHT22;10535;50.664;4.564;2023-05-23T18:30:23;17.40;99.90